Terminal Aerodrome Forecast
Issued by NWS Detroit/Pontiac, MI

Home | Current Version | Previous Version | Text Only | Print | Product List | Glossary On
Versions: 1 2 3 4 5 6 7 8 9 10 11 12 13 14 15 16 17 18 19 20 21 22 23 24 25 26
000
FTUS43 KDTX 181454 AAA
TAFDTW
TAF AMD
KDTW 181454Z 1815/1918 36009KT P6SM SCT090
     FM181700 04011G18KT P6SM SKC
     FM190100 05008KT P6SM SKC
     FM191200 09014KT P6SM BKN070=

USA.gov is the U.S. government's official web portal to all federal, state and local government web resources and services.